sensor_id;sensor_type;location;lat;lon;timestamp;P1;durP1;ratioP1;P2;durP2;ratioP2
20739;SDS011;10530;49.968;19.844;2023-09-18T00:02:53;11.90;;;5.37;;
20739;SDS011;10530;49.968;19.844;2023-09-18T00:07:56;13.25;;;5.05;;
20739;SDS011;10530;49.968;19.844;2023-09-18T00:12:59;10.18;;;4.57;;
20739;SDS011;10530;49.968;19.844;2023-09-18T00:18:01;12.80;;;5.22;;
20739;SDS011;10530;49.968;19.844;2023-09-18T00:23:04;13.60;;;4.90;;
20739;SDS011;10530;49.968;19.844;2023-09-18T00:28:07;10.07;;;4.73;;
20739;SDS011;10530;49.968;19.844;2023-09-18T00:33:10;11.50;;;5.05;;
20739;SDS011;10530;49.968;19.844;2023-09-18T00:38:13;11.27;;;4.35;;
20739;SDS011;10530;49.968;19.844;2023-09-18T00:43:17;11.45;;;4.20;;
20739;SDS011;10530;49.968;19.844;2023-09-18T00:48:20;13.82;;;4.82;;
20739;SDS011;10530;49.968;19.844;2023-09-18T00:53:23;15.00;;;4.93;;
20739;SDS011;10530;49.968;19.844;2023-09-18T00:58:27;12.15;;;5.10;;
20739;SDS011;10530;49.968;19.844;2023-09-18T01:03:31;10.50;;;4.78;;
20739;SDS011;10530;49.968;19.844;2023-09-18T01:08:35;12.60;;;5.13;;
20739;SDS011;10530;49.968;19.844;2023-09-18T01:13:44;12.35;;;4.78;;
20739;SDS011;10530;49.968;19.844;2023-09-18T01:18:51;15.60;;;5.43;;
20739;SDS011;10530;49.968;19.844;2023-09-18T01:23:55;13.18;;;5.03;;
20739;SDS011;10530;49.968;19.844;2023-09-18T01:28:58;12.35;;;4.55;;
20739;SDS011;10530;49.968;19.844;2023-09-18T01:34:00;11.73;;;5.07;;
20739;SDS011;10530;49.968;19.844;2023-09-18T01:39:03;11.88;;;5.20;;
20739;SDS011;10530;49.968;19.844;2023-09-18T01:44:07;12.50;;;5.50;;
20739;SDS011;10530;49.968;19.844;2023-09-18T01:49:10;12.68;;;5.30;;
20739;SDS011;10530;49.968;19.844;2023-09-18T01:54:12;12.82;;;5.68;;
20739;SDS011;10530;49.968;19.844;2023-09-18T01:59:15;18.77;;;4.82;;
20739;SDS011;10530;49.968;19.844;2023-09-18T02:04:20;12.68;;;5.68;;
20739;SDS011;10530;49.968;19.844;2023-09-18T02:09:43;12.70;;;5.07;;
20739;SDS011;10530;49.968;19.844;2023-09-18T02:14:46;12.60;;;4.85;;
20739;SDS011;10530;49.968;19.844;2023-09-18T02:19:49;11.02;;;4.63;;
20739;SDS011;10530;49.968;19.844;2023-09-18T02:24:52;10.10;;;4.47;;
20739;SDS011;10530;49.968;19.844;2023-09-18T02:29:54;11.40;;;4.68;;
20739;SDS011;10530;49.968;19.844;2023-09-18T02:34:57;12.93;;;5.23;;
20739;SDS011;10530;49.968;19.844;2023-09-18T02:40:00;10.05;;;5.05;;
20739;SDS011;10530;49.968;19.844;2023-09-18T02:45:03;10.15;;;4.85;;
20739;SDS011;10530;49.968;19.844;2023-09-18T02:50:06;11.73;;;5.40;;
20739;SDS011;10530;49.968;19.844;2023-09-18T02:55:09;13.18;;;5.53;;
20739;SDS011;10530;49.968;19.844;2023-09-18T03:00:12;9.37;;;4.83;;
20739;SDS011;10530;49.968;19.844;2023-09-18T03:05:16;12.10;;;4.88;;
20739;SDS011;10530;49.968;19.844;2023-09-18T03:10:19;12.13;;;5.25;;
20739;SDS011;10530;49.968;19.844;2023-09-18T03:15:22;12.15;;;5.53;;
20739;SDS011;10530;49.968;19.844;2023-09-18T03:20:25;13.77;;;5.47;;
20739;SDS011;10530;49.968;19.844;2023-09-18T03:25:29;13.57;;;5.40;;
20739;SDS011;10530;49.968;19.844;2023-09-18T03:30:52;12.25;;;5.57;;
20739;SDS011;10530;49.968;19.844;2023-09-18T03:35:57;12.55;;;5.50;;
20739;SDS011;10530;49.968;19.844;2023-09-18T03:41:04;10.02;;;4.72;;
20739;SDS011;10530;49.968;19.844;2023-09-18T03:46:07;10.27;;;5.22;;
20739;SDS011;10530;49.968;19.844;2023-09-18T03:51:18;10.20;;;4.63;;
20739;SDS011;10530;49.968;19.844;2023-09-18T03:56:21;13.30;;;5.30;;
20739;SDS011;10530;49.968;19.844;2023-09-18T04:01:24;10.25;;;4.53;;
20739;SDS011;10530;49.968;19.844;2023-09-18T04:06:35;12.88;;;5.00;;
20739;SDS011;10530;49.968;19.844;2023-09-18T04:11:40;11.25;;;4.82;;
20739;SDS011;10530;49.968;19.844;2023-09-18T04:16:43;10.03;;;4.90;;
20739;SDS011;10530;49.968;19.844;2023-09-18T04:21:46;10.40;;;4.38;;
20739;SDS011;10530;49.968;19.844;2023-09-18T04:26:50;10.75;;;5.00;;
20739;SDS011;10530;49.968;19.844;2023-09-18T04:31:52;9.20;;;4.82;;
20739;SDS011;10530;49.968;19.844;2023-09-18T04:36:56;11.68;;;5.20;;
20739;SDS011;10530;49.968;19.844;2023-09-18T04:42:01;12.33;;;5.10;;
20739;SDS011;10530;49.968;19.844;2023-09-18T04:47:06;11.30;;;5.13;;
20739;SDS011;10530;49.968;19.844;2023-09-18T04:52:09;12.55;;;5.70;;
20739;SDS011;10530;49.968;19.844;2023-09-18T04:57:12;15.38;;;6.40;;
20739;SDS011;10530;49.968;19.844;2023-09-18T05:02:14;16.23;;;6.55;;
20739;SDS011;10530;49.968;19.844;2023-09-18T05:07:19;9.90;;;5.27;;
20739;SDS011;10530;49.968;19.844;2023-09-18T05:12:23;15.50;;;6.30;;
20739;SDS011;10530;49.968;19.844;2023-09-18T05:17:44;14.38;;;6.75;;
20739;SDS011;10530;49.968;19.844;2023-09-18T05:22:50;13.98;;;6.65;;
20739;SDS011;10530;49.968;19.844;2023-09-18T05:27:57;16.15;;;7.50;;
20739;SDS011;10530;49.968;19.844;2023-09-18T05:33:02;17.53;;;6.80;;
20739;SDS011;10530;49.968;19.844;2023-09-18T05:38:09;15.27;;;6.63;;
20739;SDS011;10530;49.968;19.844;2023-09-18T05:43:16;19.42;;;8.23;;
20739;SDS011;10530;49.968;19.844;2023-09-18T05:48:20;19.23;;;8.27;;
20739;SDS011;10530;49.968;19.844;2023-09-18T05:53:23;17.73;;;7.65;;
20739;SDS011;10530;49.968;19.844;2023-09-18T05:58:25;14.53;;;6.90;;
20739;SDS011;10530;49.968;19.844;2023-09-18T06:03:29;16.85;;;7.18;;
20739;SDS011;10530;49.968;19.844;2023-09-18T06:08:37;19.25;;;7.68;;
20739;SDS011;10530;49.968;19.844;2023-09-18T06:13:40;14.68;;;7.28;;
20739;SDS011;10530;49.968;19.844;2023-09-18T06:18:43;15.70;;;7.75;;
20739;SDS011;10530;49.968;19.844;2023-09-18T06:23:46;15.47;;;7.40;;
20739;SDS011;10530;49.968;19.844;2023-09-18T06:28:48;15.15;;;7.05;;
20739;SDS011;10530;49.968;19.844;2023-09-18T06:33:53;17.13;;;7.35;;
20739;SDS011;10530;49.968;19.844;2023-09-18T06:38:56;16.25;;;7.50;;
20739;SDS011;10530;49.968;19.844;2023-09-18T06:43:59;14.95;;;7.20;;
20739;SDS011;10530;49.968;19.844;2023-09-18T06:49:05;17.37;;;7.57;;
20739;SDS011;10530;49.968;19.844;2023-09-18T06:54:08;14.50;;;6.65;;
20739;SDS011;10530;49.968;19.844;2023-09-18T06:59:10;14.15;;;7.70;;
20739;SDS011;10530;49.968;19.844;2023-09-18T07:04:14;13.63;;;6.43;;
20739;SDS011;10530;49.968;19.844;2023-09-18T07:09:17;12.63;;;6.35;;
20739;SDS011;10530;49.968;19.844;2023-09-18T07:14:20;11.73;;;6.53;;
20739;SDS011;10530;49.968;19.844;2023-09-18T07:19:22;13.43;;;6.45;;
20739;SDS011;10530;49.968;19.844;2023-09-18T07:24:25;11.75;;;6.63;;
20739;SDS011;10530;49.968;19.844;2023-09-18T07:29:28;12.52;;;6.30;;
20739;SDS011;10530;49.968;19.844;2023-09-18T07:34:31;13.75;;;7.05;;
20739;SDS011;10530;49.968;19.844;2023-09-18T07:39:34;12.33;;;6.60;;
20739;SDS011;10530;49.968;19.844;2023-09-18T07:44:36;12.77;;;6.35;;
20739;SDS011;10530;49.968;19.844;2023-09-18T07:49:39;12.07;;;6.50;;
20739;SDS011;10530;49.968;19.844;2023-09-18T07:54:42;12.68;;;6.35;;
20739;SDS011;10530;49.968;19.844;2023-09-18T07:59:46;13.82;;;6.57;;
20739;SDS011;10530;49.968;19.844;2023-09-18T08:04:48;14.17;;;6.70;;
20739;SDS011;10530;49.968;19.844;2023-09-18T08:09:52;11.73;;;6.63;;
20739;SDS011;10530;49.968;19.844;2023-09-18T08:14:55;12.63;;;6.47;;
20739;SDS011;10530;49.968;19.844;2023-09-18T08:20:00;12.05;;;5.97;;
20739;SDS011;10530;49.968;19.844;2023-09-18T08:25:04;10.13;;;6.00;;
20739;SDS011;10530;49.968;19.844;2023-09-18T08:30:07;11.77;;;6.20;;
20739;SDS011;10530;49.968;19.844;2023-09-18T08:35:12;9.70;;;6.00;;
20739;SDS011;10530;49.968;19.844;2023-09-18T08:40:15;11.05;;;6.50;;
20739;SDS011;10530;49.968;19.844;2023-09-18T08:45:30;12.85;;;6.78;;
20739;SDS011;10530;49.968;19.844;2023-09-18T08:50:48;11.95;;;6.53;;
20739;SDS011;10530;49.968;19.844;2023-09-18T08:55:52;11.67;;;6.50;;
20739;SDS011;10530;49.968;19.844;2023-09-18T09:01:00;15.90;;;6.20;;
20739;SDS011;10530;49.968;19.844;2023-09-18T09:06:06;10.10;;;6.32;;
20739;SDS011;10530;49.968;19.844;2023-09-18T09:11:09;10.35;;;6.55;;
20739;SDS011;10530;49.968;19.844;2023-09-18T09:16:13;11.85;;;6.72;;
20739;SDS011;10530;49.968;19.844;2023-09-18T09:21:19;11.37;;;6.93;;
20739;SDS011;10530;49.968;19.844;2023-09-18T09:26:22;10.30;;;6.40;;
20739;SDS011;10530;49.968;19.844;2023-09-18T09:31:26;11.00;;;6.30;;
20739;SDS011;10530;49.968;19.844;2023-09-18T09:36:33;9.55;;;6.30;;
20739;SDS011;10530;49.968;19.844;2023-09-18T09:41:35;10.32;;;6.47;;
20739;SDS011;10530;49.968;19.844;2023-09-18T09:46:44;10.30;;;6.30;;
20739;SDS011;10530;49.968;19.844;2023-09-18T09:51:48;9.88;;;5.88;;
20739;SDS011;10530;49.968;19.844;2023-09-18T09:56:51;8.98;;;5.80;;
20739;SDS011;10530;49.968;19.844;2023-09-18T10:01:56;11.73;;;5.97;;
20739;SDS011;10530;49.968;19.844;2023-09-18T10:07:07;10.32;;;6.18;;
20739;SDS011;10530;49.968;19.844;2023-09-18T10:12:11;8.70;;;5.70;;
20739;SDS011;10530;49.968;19.844;2023-09-18T10:17:18;8.73;;;5.38;;
20739;SDS011;10530;49.968;19.844;2023-09-18T10:22:31;8.25;;;5.68;;
20739;SDS011;10530;49.968;19.844;2023-09-18T10:27:39;9.45;;;5.57;;
20739;SDS011;10530;49.968;19.844;2023-09-18T10:32:44;9.25;;;5.15;;
20739;SDS011;10530;49.968;19.844;2023-09-18T10:37:49;10.97;;;5.70;;
20739;SDS011;10530;49.968;19.844;2023-09-18T10:42:57;10.10;;;5.47;;
20739;SDS011;10530;49.968;19.844;2023-09-18T10:48:00;8.30;;;4.97;;
20739;SDS011;10530;49.968;19.844;2023-09-18T10:53:04;9.18;;;5.10;;
20739;SDS011;10530;49.968;19.844;2023-09-18T10:58:07;9.23;;;5.68;;
20739;SDS011;10530;49.968;19.844;2023-09-18T11:03:14;10.73;;;5.30;;
20739;SDS011;10530;49.968;19.844;2023-09-18T11:08:29;9.30;;;5.50;;
20739;SDS011;10530;49.968;19.844;2023-09-18T11:13:38;9.35;;;5.55;;
20739;SDS011;10530;49.968;19.844;2023-09-18T11:18:51;8.40;;;5.57;;
20739;SDS011;10530;49.968;19.844;2023-09-18T11:24:07;7.88;;;5.50;;
20739;SDS011;10530;49.968;19.844;2023-09-18T11:29:31;8.87;;;5.67;;
20739;SDS011;10530;49.968;19.844;2023-09-18T11:34:39;8.90;;;5.70;;
20739;SDS011;10530;49.968;19.844;2023-09-18T11:39:43;9.07;;;5.25;;
20739;SDS011;10530;49.968;19.844;2023-09-18T11:44:47;7.50;;;5.10;;
20739;SDS011;10530;49.968;19.844;2023-09-18T11:49:52;8.60;;;4.82;;
20739;SDS011;10530;49.968;19.844;2023-09-18T11:54:58;8.47;;;5.20;;
20739;SDS011;10530;49.968;19.844;2023-09-18T12:00:02;8.60;;;5.28;;
20739;SDS011;10530;49.968;19.844;2023-09-18T12:05:14;8.38;;;5.43;;
20739;SDS011;10530;49.968;19.844;2023-09-18T12:10:18;8.05;;;5.38;;
20739;SDS011;10530;49.968;19.844;2023-09-18T12:15:25;8.52;;;5.10;;
20739;SDS011;10530;49.968;19.844;2023-09-18T12:20:33;8.17;;;4.83;;
20739;SDS011;10530;49.968;19.844;2023-09-18T12:25:44;10.00;;;5.30;;
20739;SDS011;10530;49.968;19.844;2023-09-18T12:30:51;7.35;;;4.63;;
20739;SDS011;10530;49.968;19.844;2023-09-18T12:35:57;8.95;;;4.18;;
20739;SDS011;10530;49.968;19.844;2023-09-18T12:41:01;9.43;;;4.07;;
20739;SDS011;10530;49.968;19.844;2023-09-18T12:46:08;7.47;;;4.03;;
20739;SDS011;10530;49.968;19.844;2023-09-18T12:51:11;6.53;;;3.70;;
20739;SDS011;10530;49.968;19.844;2023-09-18T12:56:16;6.82;;;3.92;;
20739;SDS011;10530;49.968;19.844;2023-09-18T13:01:19;7.60;;;4.35;;
20739;SDS011;10530;49.968;19.844;2023-09-18T13:06:23;7.10;;;4.05;;
20739;SDS011;10530;49.968;19.844;2023-09-18T13:11:27;8.87;;;3.73;;
20739;SDS011;10530;49.968;19.844;2023-09-18T13:16:30;8.02;;;4.15;;
20739;SDS011;10530;49.968;19.844;2023-09-18T13:21:33;7.72;;;4.13;;
20739;SDS011;10530;49.968;19.844;2023-09-18T13:26:38;7.60;;;4.22;;
20739;SDS011;10530;49.968;19.844;2023-09-18T13:31:41;7.63;;;4.25;;
20739;SDS011;10530;49.968;19.844;2023-09-18T13:36:44;6.53;;;3.70;;
20739;SDS011;10530;49.968;19.844;2023-09-18T13:41:47;7.03;;;3.72;;
20739;SDS011;10530;49.968;19.844;2023-09-18T13:46:50;7.03;;;4.07;;
20739;SDS011;10530;49.968;19.844;2023-09-18T13:51:53;8.27;;;3.72;;
20739;SDS011;10530;49.968;19.844;2023-09-18T13:56:56;7.60;;;4.20;;
20739;SDS011;10530;49.968;19.844;2023-09-18T14:01:59;7.63;;;3.87;;
20739;SDS011;10530;49.968;19.844;2023-09-18T14:07:02;7.60;;;4.00;;
20739;SDS011;10530;49.968;19.844;2023-09-18T14:12:06;8.43;;;4.00;;
20739;SDS011;10530;49.968;19.844;2023-09-18T14:17:09;6.85;;;3.92;;
20739;SDS011;10530;49.968;19.844;2023-09-18T14:22:13;7.28;;;3.55;;
20739;SDS011;10530;49.968;19.844;2023-09-18T14:27:16;6.37;;;3.77;;
20739;SDS011;10530;49.968;19.844;2023-09-18T14:32:19;6.70;;;3.72;;
20739;SDS011;10530;49.968;19.844;2023-09-18T14:37:22;6.57;;;3.78;;
20739;SDS011;10530;49.968;19.844;2023-09-18T14:42:24;7.13;;;3.40;;
20739;SDS011;10530;49.968;19.844;2023-09-18T14:47:28;6.60;;;3.60;;
20739;SDS011;10530;49.968;19.844;2023-09-18T14:52:31;6.50;;;3.80;;
20739;SDS011;10530;49.968;19.844;2023-09-18T14:57:34;7.22;;;3.70;;
20739;SDS011;10530;49.968;19.844;2023-09-18T15:02:37;8.02;;;4.00;;
20739;SDS011;10530;49.968;19.844;2023-09-18T15:07:40;9.00;;;4.07;;
20739;SDS011;10530;49.968;19.844;2023-09-18T15:12:43;8.35;;;3.88;;
20739;SDS011;10530;49.968;19.844;2023-09-18T15:17:46;7.50;;;4.00;;
20739;SDS011;10530;49.968;19.844;2023-09-18T15:22:49;6.97;;;3.70;;
20739;SDS011;10530;49.968;19.844;2023-09-18T15:27:52;7.20;;;3.90;;
20739;SDS011;10530;49.968;19.844;2023-09-18T15:32:55;8.00;;;4.10;;
20739;SDS011;10530;49.968;19.844;2023-09-18T15:37:58;8.23;;;4.18;;
20739;SDS011;10530;49.968;19.844;2023-09-18T15:43:02;9.30;;;4.30;;
20739;SDS011;10530;49.968;19.844;2023-09-18T15:48:05;8.25;;;4.35;;
20739;SDS011;10530;49.968;19.844;2023-09-18T15:53:08;9.63;;;4.95;;
20739;SDS011;10530;49.968;19.844;2023-09-18T15:58:11;10.18;;;4.50;;
20739;SDS011;10530;49.968;19.844;2023-09-18T16:03:14;8.65;;;4.40;;
20739;SDS011;10530;49.968;19.844;2023-09-18T16:08:18;9.03;;;4.40;;
20739;SDS011;10530;49.968;19.844;2023-09-18T16:13:20;9.45;;;4.50;;
20739;SDS011;10530;49.968;19.844;2023-09-18T16:18:23;9.27;;;4.50;;
20739;SDS011;10530;49.968;19.844;2023-09-18T16:23:26;10.35;;;4.97;;
20739;SDS011;10530;49.968;19.844;2023-09-18T16:28:30;10.43;;;4.80;;
20739;SDS011;10530;49.968;19.844;2023-09-18T16:33:32;9.67;;;4.57;;
20739;SDS011;10530;49.968;19.844;2023-09-18T16:38:36;11.05;;;4.85;;
20739;SDS011;10530;49.968;19.844;2023-09-18T16:43:43;10.25;;;5.38;;
20739;SDS011;10530;49.968;19.844;2023-09-18T16:48:46;11.50;;;4.93;;
20739;SDS011;10530;49.968;19.844;2023-09-18T16:53:49;12.20;;;5.38;;
20739;SDS011;10530;49.968;19.844;2023-09-18T16:58:55;10.90;;;5.20;;
20739;SDS011;10530;49.968;19.844;2023-09-18T17:03:58;12.07;;;5.82;;
20739;SDS011;10530;49.968;19.844;2023-09-18T17:09:01;11.77;;;5.75;;
20739;SDS011;10530;49.968;19.844;2023-09-18T17:14:09;13.23;;;6.10;;
20739;SDS011;10530;49.968;19.844;2023-09-18T17:19:12;12.02;;;5.15;;
20739;SDS011;10530;49.968;19.844;2023-09-18T17:24:15;12.47;;;6.30;;
20739;SDS011;10530;49.968;19.844;2023-09-18T17:29:18;14.40;;;6.05;;
20739;SDS011;10530;49.968;19.844;2023-09-18T17:34:21;12.95;;;5.95;;
20739;SDS011;10530;49.968;19.844;2023-09-18T17:39:24;14.27;;;6.30;;
20739;SDS011;10530;49.968;19.844;2023-09-18T17:44:27;17.52;;;7.85;;
20739;SDS011;10530;49.968;19.844;2023-09-18T17:49:29;14.83;;;6.90;;
20739;SDS011;10530;49.968;19.844;2023-09-18T17:54:32;16.23;;;7.18;;
20739;SDS011;10530;49.968;19.844;2023-09-18T17:59:35;15.77;;;7.28;;
20739;SDS011;10530;49.968;19.844;2023-09-18T18:04:40;14.20;;;7.03;;
20739;SDS011;10530;49.968;19.844;2023-09-18T18:09:43;14.20;;;7.05;;
20739;SDS011;10530;49.968;19.844;2023-09-18T18:14:46;15.50;;;7.03;;
20739;SDS011;10530;49.968;19.844;2023-09-18T18:19:52;14.45;;;6.70;;
20739;SDS011;10530;49.968;19.844;2023-09-18T18:24:54;12.93;;;6.53;;
20739;SDS011;10530;49.968;19.844;2023-09-18T18:29:58;15.93;;;7.25;;
20739;SDS011;10530;49.968;19.844;2023-09-18T18:35:01;13.55;;;7.20;;
20739;SDS011;10530;49.968;19.844;2023-09-18T18:40:04;15.30;;;7.50;;
20739;SDS011;10530;49.968;19.844;2023-09-18T18:45:08;15.60;;;7.65;;
20739;SDS011;10530;49.968;19.844;2023-09-18T18:50:13;17.63;;;7.72;;
20739;SDS011;10530;49.968;19.844;2023-09-18T18:55:15;16.30;;;7.43;;
20739;SDS011;10530;49.968;19.844;2023-09-18T19:00:19;13.98;;;7.70;;
20739;SDS011;10530;49.968;19.844;2023-09-18T19:05:22;16.93;;;7.43;;
20739;SDS011;10530;49.968;19.844;2023-09-18T19:10:26;16.15;;;7.88;;
20739;SDS011;10530;49.968;19.844;2023-09-18T19:15:29;15.80;;;7.75;;
20739;SDS011;10530;49.968;19.844;2023-09-18T19:20:31;15.02;;;7.00;;
20739;SDS011;10530;49.968;19.844;2023-09-18T19:25:44;14.68;;;7.75;;
20739;SDS011;10530;49.968;19.844;2023-09-18T19:30:49;14.17;;;7.50;;
20739;SDS011;10530;49.968;19.844;2023-09-18T19:35:55;14.40;;;7.68;;
20739;SDS011;10530;49.968;19.844;2023-09-18T19:40:58;14.57;;;6.80;;
20739;SDS011;10530;49.968;19.844;2023-09-18T19:46:02;15.02;;;6.80;;
20739;SDS011;10530;49.968;19.844;2023-09-18T19:51:04;14.82;;;7.15;;
20739;SDS011;10530;49.968;19.844;2023-09-18T19:56:07;13.63;;;6.93;;
20739;SDS011;10530;49.968;19.844;2023-09-18T20:01:10;13.00;;;6.25;;
20739;SDS011;10530;49.968;19.844;2023-09-18T20:06:13;13.48;;;6.78;;
20739;SDS011;10530;49.968;19.844;2023-09-18T20:11:16;13.90;;;6.63;;
20739;SDS011;10530;49.968;19.844;2023-09-18T20:16:19;12.75;;;6.32;;
20739;SDS011;10530;49.968;19.844;2023-09-18T20:21:22;19.57;;;6.80;;
20739;SDS011;10530;49.968;19.844;2023-09-18T20:26:25;13.15;;;6.60;;
20739;SDS011;10530;49.968;19.844;2023-09-18T20:31:28;14.60;;;6.47;;
20739;SDS011;10530;49.968;19.844;2023-09-18T20:36:31;14.07;;;6.75;;
20739;SDS011;10530;49.968;19.844;2023-09-18T20:41:34;13.73;;;6.60;;
20739;SDS011;10530;49.968;19.844;2023-09-18T20:46:37;14.57;;;6.60;;
20739;SDS011;10530;49.968;19.844;2023-09-18T20:51:40;14.60;;;7.40;;
20739;SDS011;10530;49.968;19.844;2023-09-18T20:56:42;13.07;;;7.00;;
20739;SDS011;10530;49.968;19.844;2023-09-18T21:01:45;13.52;;;6.20;;
20739;SDS011;10530;49.968;19.844;2023-09-18T21:06:48;12.13;;;5.80;;
20739;SDS011;10530;49.968;19.844;2023-09-18T21:11:51;13.93;;;6.00;;
20739;SDS011;10530;49.968;19.844;2023-09-18T21:16:54;13.07;;;6.03;;
20739;SDS011;10530;49.968;19.844;2023-09-18T21:21:57;13.00;;;6.22;;
20739;SDS011;10530;49.968;19.844;2023-09-18T21:27:00;14.73;;;6.03;;
20739;SDS011;10530;49.968;19.844;2023-09-18T21:32:03;10.95;;;5.68;;
20739;SDS011;10530;49.968;19.844;2023-09-18T21:37:06;11.50;;;6.03;;
20739;SDS011;10530;49.968;19.844;2023-09-18T21:42:08;11.90;;;6.07;;
20739;SDS011;10530;49.968;19.844;2023-09-18T21:47:12;13.68;;;6.40;;
20739;SDS011;10530;49.968;19.844;2023-09-18T21:52:15;14.02;;;6.60;;
20739;SDS011;10530;49.968;19.844;2023-09-18T21:57:19;12.82;;;6.45;;
20739;SDS011;10530;49.968;19.844;2023-09-18T22:02:22;13.00;;;6.40;;
20739;SDS011;10530;49.968;19.844;2023-09-18T22:07:25;13.07;;;6.18;;
20739;SDS011;10530;49.968;19.844;2023-09-18T22:12:28;13.52;;;6.70;;
20739;SDS011;10530;49.968;19.844;2023-09-18T22:17:30;13.55;;;6.22;;
20739;SDS011;10530;49.968;19.844;2023-09-18T22:22:36;15.52;;;6.70;;
20739;SDS011;10530;49.968;19.844;2023-09-18T22:27:40;13.50;;;6.80;;
20739;SDS011;10530;49.968;19.844;2023-09-18T22:32:43;13.25;;;6.68;;
20739;SDS011;10530;49.968;19.844;2023-09-18T22:37:46;13.65;;;6.65;;
20739;SDS011;10530;49.968;19.844;2023-09-18T22:59:20;15.07;;;7.47;;
20739;SDS011;10530;49.968;19.844;2023-09-18T23:04:24;16.13;;;7.38;;
20739;SDS011;10530;49.968;19.844;2023-09-18T23:09:30;16.95;;;7.55;;
20739;SDS011;10530;49.968;19.844;2023-09-18T23:14:33;13.75;;;7.15;;
20739;SDS011;10530;49.968;19.844;2023-09-18T23:19:36;22.17;;;8.10;;
20739;SDS011;10530;49.968;19.844;2023-09-18T23:24:40;14.82;;;7.40;;
20739;SDS011;10530;49.968;19.844;2023-09-18T23:29:49;18.40;;;7.93;;
20739;SDS011;10530;49.968;19.844;2023-09-18T23:34:52;17.77;;;7.72;;
20739;SDS011;10530;49.968;19.844;2023-09-18T23:40:01;16.50;;;7.93;;
20739;SDS011;10530;49.968;19.844;2023-09-18T23:45:08;16.77;;;7.43;;
20739;SDS011;10530;49.968;19.844;2023-09-18T23:50:12;18.42;;;8.43;;
20739;SDS011;10530;49.968;19.844;2023-09-18T23:55:18;18.88;;;7.65;;
